Time;durP1;ratioP1;P1;durP2;ratioP2;P2;SDS_P1;SDS_P2;PMS_P1;PMS_P2;Temp;Humidity;BMP_temperature;BMP_pressure;BME280_temperature;BME280_humidity;BME280_pressure;Samples;Min_cycle;Max_cycle;Signal;HPM_P1;HPM_P2
2023/12/20 00:02:08;;;;;;;;;;;4.90;99.90;;;;;;5060052;28;20432;-77
2023/12/20 00:04:34;;;;;;;;;;;4.90;99.90;;;;;;5065299;28;19939;-78
2023/12/20 00:07:01;;;;;;;;;;;4.90;99.90;;;;;;5064418;28;20393;-76
2023/12/20 00:09:28;;;;;;;;;;;4.90;99.90;;;;;;5063247;28;19939;-77
2023/12/20 00:11:54;;;;;;;;;;;4.90;99.90;;;;;;5064011;28;19933;-77
2023/12/20 00:14:21;;;;;;;;;;;4.90;99.90;;;;;;5064755;28;20545;-76
2023/12/20 00:16:47;;;;;;;;;;;4.90;99.90;;;;;;5067119;28;20691;-77
2023/12/20 00:19:15;;;;;;;;;;;4.90;99.90;;;;;;5064809;28;19959;-77
2023/12/20 00:21:42;;;;;;;;;;;4.90;99.90;;;;;;5067361;28;19963;-76
2023/12/20 00:24:09;;;;;;;;;;;4.90;99.90;;;;;;5066709;28;19928;-77
2023/12/20 00:26:35;;;;;;;;;;;4.90;99.90;;;;;;5066585;28;19939;-76
2023/12/20 00:29:02;;;;;;;;;;;4.90;99.90;;;;;;5065183;28;19935;-75
2023/12/20 00:31:29;;;;;;;;;;;4.90;99.90;;;;;;5067237;28;19928;-76
2023/12/20 00:33:56;;;;;;;;;;;4.90;99.90;;;;;;5066758;28;19981;-77
2023/12/20 00:36:24;;;;;;;;;;;4.90;99.90;;;;;;5066265;28;20374;-76
2023/12/20 00:38:51;;;;;;;;;;;4.90;99.90;;;;;;5064962;28;20317;-77
2023/12/20 00:41:17;;;;;;;;;;;4.90;99.90;;;;;;5064946;28;19958;-77
2023/12/20 00:43:44;;;;;;;;;;;4.90;99.90;;;;;;5061532;28;19937;-76
2023/12/20 00:46:11;;;;;;;;;;;4.90;99.90;;;;;;5063876;28;19998;-77
2023/12/20 00:48:37;;;;;;;;;;;4.90;99.90;;;;;;5063621;28;20375;-77
2023/12/20 00:51:04;;;;;;;;;;;4.90;99.90;;;;;;5066447;28;20493;-77
2023/12/20 00:53:32;;;;;;;;;;;4.90;99.90;;;;;;5065362;28;20009;-77
2023/12/20 00:55:59;;;;;;;;;;;4.90;99.90;;;;;;5065934;28;19973;-76
2023/12/20 00:58:26;;;;;;;;;;;4.90;99.90;;;;;;5061958;28;20003;-76
2023/12/20 01:00:53;;;;;;;;;;;4.90;99.90;;;;;;5064980;28;19985;-76
2023/12/20 01:03:20;;;;;;;;;;;4.90;99.90;;;;;;5065857;28;19947;-76
2023/12/20 01:05:46;;;;;;;;;;;5.00;99.90;;;;;;5063394;28;20314;-76
2023/12/20 01:08:13;;;;;;;;;;;4.90;99.90;;;;;;5065129;28;19929;-77
2023/12/20 01:10:41;;;;;;;;;;;4.90;99.90;;;;;;5063581;28;20019;-77
2023/12/20 01:13:08;;;;;;;;;;;4.90;99.90;;;;;;5063658;28;19936;-77
2023/12/20 01:15:35;;;;;;;;;;;4.90;99.90;;;;;;5062672;28;19962;-77
2023/12/20 01:18:02;;;;;;;;;;;4.90;99.90;;;;;;5062140;28;20346;-79
2023/12/20 01:20:29;;;;;;;;;;;4.90;99.90;;;;;;5060117;28;19932;-77
2023/12/20 01:22:55;;;;;;;;;;;4.90;99.90;;;;;;5057836;28;19929;-76
2023/12/20 01:25:22;;;;;;;;;;;4.90;99.90;;;;;;5063736;28;19932;-77
2023/12/20 01:27:49;;;;;;;;;;;4.90;99.90;;;;;;5063279;28;19943;-77
2023/12/20 01:30:16;;;;;;;;;;;4.90;99.90;;;;;;5060781;28;20024;-76
2023/12/20 01:32:42;;;;;;;;;;;4.90;99.90;;;;;;5060474;28;19933;-76
2023/12/20 01:35:09;;;;;;;;;;;4.90;99.90;;;;;;5063369;28;20312;-76
2023/12/20 01:37:36;;;;;;;;;;;5.00;99.90;;;;;;5060880;28;19935;-76
2023/12/20 01:40:03;;;;;;;;;;;4.90;99.90;;;;;;5063309;28;19962;-77
2023/12/20 01:42:29;;;;;;;;;;;5.00;99.90;;;;;;5063578;28;20566;-77
2023/12/20 01:44:57;;;;;;;;;;;4.90;99.90;;;;;;5063268;28;19931;-75
2023/12/20 01:47:24;;;;;;;;;;;5.00;99.90;;;;;;5062321;28;19935;-76
2023/12/20 01:49:51;;;;;;;;;;;4.90;99.90;;;;;;5063715;28;19932;-76
2023/12/20 01:52:17;;;;;;;;;;;5.00;99.90;;;;;;5062106;28;20569;-76
2023/12/20 01:54:44;;;;;;;;;;;5.00;99.90;;;;;;5061146;28;19959;-75
2023/12/20 01:57:10;;;;;;;;;;;5.00;99.90;;;;;;5060667;28;19936;-77
2023/12/20 01:59:40;;;;;;;;;;;5.00;99.90;;;;;;5063196;28;20426;-76
2023/12/20 02:02:08;;;;;;;;;;;5.00;99.90;;;;;;5057164;28;19965;-78
2023/12/20 02:04:35;;;;;;;;;;;5.00;99.90;;;;;;5062564;28;19936;-77
2023/12/20 02:07:02;;;;;;;;;;;5.00;99.90;;;;;;5066252;28;19933;-76
2023/12/20 02:09:28;;;;;;;;;;;5.00;99.90;;;;;;5063916;28;19939;-76
2023/12/20 02:11:55;;;;;;;;;;;5.00;99.90;;;;;;5067345;28;21010;-77
2023/12/20 02:14:21;;;;;;;;;;;5.00;99.90;;;;;;5066846;28;20275;-77
2023/12/20 02:16:48;;;;;;;;;;;5.00;99.90;;;;;;5067464;28;19950;-76
2023/12/20 02:19:16;;;;;;;;;;;5.00;99.90;;;;;;5067035;28;19935;-76
2023/12/20 02:21:44;;;;;;;;;;;5.00;99.90;;;;;;5065932;28;19974;-76
2023/12/20 02:24:10;;;;;;;;;;;5.00;99.90;;;;;;5064764;28;19932;-76
2023/12/20 02:26:37;;;;;;;;;;;5.00;99.90;;;;;;5063905;28;20032;-77
2023/12/20 02:29:04;;;;;;;;;;;5.00;99.90;;;;;;5066444;28;19935;-76
2023/12/20 02:31:30;;;;;;;;;;;5.00;99.90;;;;;;5067735;28;19932;-76
2023/12/20 02:33:57;;;;;;;;;;;5.00;99.90;;;;;;5068384;28;19946;-77
2023/12/20 02:36:23;;;;;;;;;;;5.00;99.90;;;;;;5066232;28;19935;-75
2023/12/20 02:38:51;;;;;;;;;;;5.00;99.90;;;;;;5066042;28;19932;-77
2023/12/20 02:41:18;;;;;;;;;;;5.00;99.90;;;;;;5066214;28;20021;-77
2023/12/20 02:43:44;;;;;;;;;;;5.00;99.90;;;;;;5065431;28;19951;-77
2023/12/20 02:46:11;;;;;;;;;;;5.00;99.90;;;;;;5059476;28;19939;-76
2023/12/20 02:48:37;;;;;;;;;;;5.00;99.90;;;;;;5066400;28;19928;-77
2023/12/20 02:51:04;;;;;;;;;;;5.00;99.90;;;;;;5065533;28;19928;-76
2023/12/20 02:53:31;;;;;;;;;;;5.00;99.90;;;;;;5066475;28;19985;-76
2023/12/20 02:55:59;;;;;;;;;;;5.00;99.90;;;;;;5064626;28;19932;-77
2023/12/20 02:58:25;;;;;;;;;;;5.00;99.90;;;;;;5064572;28;20019;-78
2023/12/20 03:00:52;;;;;;;;;;;5.00;99.90;;;;;;5063836;28;20159;-77
2023/12/20 03:03:18;;;;;;;;;;;5.00;99.90;;;;;;5066858;28;19932;-76
2023/12/20 03:05:46;;;;;;;;;;;5.00;99.90;;;;;;5065860;28;20438;-77
2023/12/20 03:08:12;;;;;;;;;;;5.00;99.90;;;;;;5064712;28;19970;-77
2023/12/20 03:10:39;;;;;;;;;;;5.00;99.90;;;;;;5064651;28;19933;-76
2023/12/20 03:13:07;;;;;;;;;;;5.00;99.90;;;;;;5066077;28;19939;-76
2023/12/20 03:15:33;;;;;;;;;;;5.00;99.90;;;;;;5060917;28;19962;-76
2023/12/20 03:18:00;;;;;;;;;;;5.00;99.90;;;;;;5066473;28;19928;-77
2023/12/20 03:20:26;;;;;;;;;;;5.00;99.90;;;;;;5065358;28;20473;-77
2023/12/20 03:22:53;;;;;;;;;;;5.00;99.90;;;;;;5065605;28;20528;-77
2023/12/20 03:25:20;;;;;;;;;;;5.10;99.90;;;;;;5066418;28;19928;-77
2023/12/20 03:27:46;;;;;;;;;;;5.10;99.90;;;;;;5066597;28;19935;-76
2023/12/20 03:30:14;;;;;;;;;;;5.10;99.90;;;;;;5061062;28;19932;-76
2023/12/20 03:32:41;;;;;;;;;;;5.00;99.90;;;;;;5066008;28;20036;-76
2023/12/20 03:35:07;;;;;;;;;;;5.00;99.90;;;;;;5065208;28;19932;-77
2023/12/20 03:37:34;;;;;;;;;;;5.10;99.90;;;;;;5063531;28;19935;-77
2023/12/20 03:40:00;;;;;;;;;;;5.10;99.90;;;;;;5066195;28;19935;-76
2023/12/20 03:42:27;;;;;;;;;;;5.00;99.90;;;;;;5061061;28;19928;-77
2023/12/20 03:44:54;;;;;;;;;;;5.10;99.90;;;;;;5065367;28;19928;-77
2023/12/20 03:47:21;;;;;;;;;;;5.10;99.90;;;;;;5063732;28;19936;-76
2023/12/20 03:49:48;;;;;;;;;;;5.00;99.90;;;;;;5065604;28;19930;-76
2023/12/20 03:52:15;;;;;;;;;;;5.10;99.90;;;;;;5065660;28;19955;-77
2023/12/20 03:54:42;;;;;;;;;;;5.10;99.90;;;;;;5064723;28;20450;-76
2023/12/20 03:57:08;;;;;;;;;;;5.10;99.90;;;;;;5066740;28;19934;-76
2023/12/20 03:59:35;;;;;;;;;;;5.10;99.90;;;;;;5064854;28;19928;-78
2023/12/20 04:02:02;;;;;;;;;;;5.10;99.90;;;;;;5063248;28;19929;-78
2023/12/20 04:04:30;;;;;;;;;;;5.10;99.90;;;;;;5062401;28;19940;-77
2023/12/20 04:06:56;;;;;;;;;;;5.10;99.90;;;;;;5063544;28;19932;-77
2023/12/20 04:09:23;;;;;;;;;;;5.10;99.90;;;;;;5063951;28;20386;-77
2023/12/20 04:11:49;;;;;;;;;;;5.10;99.90;;;;;;5064544;28;20401;-79
2023/12/20 04:14:16;;;;;;;;;;;5.10;99.90;;;;;;5066393;28;19932;-76
2023/12/20 04:16:42;;;;;;;;;;;5.10;99.90;;;;;;5063424;28;20228;-77
2023/12/20 04:19:09;;;;;;;;;;;5.10;99.90;;;;;;5063734;28;19943;-76
2023/12/20 04:21:37;;;;;;;;;;;5.10;99.90;;;;;;5063488;28;19929;-77
2023/12/20 04:24:03;;;;;;;;;;;5.10;99.90;;;;;;5065477;28;19933;-77
2023/12/20 04:26:30;;;;;;;;;;;5.10;99.90;;;;;;5064198;28;19928;-77
2023/12/20 04:28:57;;;;;;;;;;;5.10;99.90;;;;;;5063742;28;19928;-76
2023/12/20 04:31:23;;;;;;;;;;;5.10;99.90;;;;;;5063196;28;19936;-77
2023/12/20 04:33:50;;;;;;;;;;;5.10;99.90;;;;;;5062744;28;19997;-76
2023/12/20 04:36:16;;;;;;;;;;;5.10;99.90;;;;;;5062422;28;19924;-76
2023/12/20 04:38:44;;;;;;;;;;;5.10;99.90;;;;;;5065129;28;19932;-76
2023/12/20 04:41:11;;;;;;;;;;;5.10;99.90;;;;;;5065944;28;19995;-78
2023/12/20 04:43:37;;;;;;;;;;;5.10;99.90;;;;;;5064722;28;19958;-78
2023/12/20 04:46:04;;;;;;;;;;;5.10;99.90;;;;;;5062886;28;19935;-77
2023/12/20 04:48:30;;;;;;;;;;;5.20;99.90;;;;;;5064493;28;20642;-77
2023/12/20 04:50:57;;;;;;;;;;;5.10;99.90;;;;;;5063622;28;19936;-77
2023/12/20 04:53:24;;;;;;;;;;;5.10;99.90;;;;;;5063918;28;19940;-76
2023/12/20 04:55:51;;;;;;;;;;;5.10;99.90;;;;;;5062565;28;20023;-77
2023/12/20 04:58:18;;;;;;;;;;;5.20;99.90;;;;;;5062736;28;19931;-77
2023/12/20 05:00:44;;;;;;;;;;;5.10;99.90;;;;;;5063297;28;19932;-77
2023/12/20 05:03:11;;;;;;;;;;;5.10;99.90;;;;;;5061965;28;19956;-78
2023/12/20 05:05:38;;;;;;;;;;;5.10;99.90;;;;;;5064734;28;20386;-77
2023/12/20 05:08:05;;;;;;;;;;;5.20;99.90;;;;;;5066396;28;19928;-77
2023/12/20 05:10:32;;;;;;;;;;;5.10;99.90;;;;;;5061945;28;19959;-77
2023/12/20 05:13:00;;;;;;;;;;;5.10;99.90;;;;;;5064896;28;19929;-77
2023/12/20 05:15:26;;;;;;;;;;;5.10;99.90;;;;;;5060360;28;20015;-76
2023/12/20 05:17:53;;;;;;;;;;;5.20;99.90;;;;;;5064079;28;19974;-77
2023/12/20 05:20:19;;;;;;;;;;;5.20;99.90;;;;;;5061959;28;20390;-77
2023/12/20 05:22:47;;;;;;;;;;;5.20;99.90;;;;;;5063679;28;19928;-77
2023/12/20 05:25:13;;;;;;;;;;;5.20;99.90;;;;;;5064441;28;20424;-77
2023/12/20 05:27:40;;;;;;;;;;;5.20;99.90;;;;;;5063486;28;19933;-78
2023/12/20 05:30:08;;;;;;;;;;;5.20;99.90;;;;;;5061038;28;19931;-77
2023/12/20 05:32:35;;;;;;;;;;;5.20;99.90;;;;;;5062327;28;19935;-77
2023/12/20 05:35:01;;;;;;;;;;;5.10;99.90;;;;;;5061891;28;19932;-77
2023/12/20 05:37:28;;;;;;;;;;;5.20;99.90;;;;;;5063164;28;20394;-78
2023/12/20 05:39:55;;;;;;;;;;;5.20;99.90;;;;;;5062944;28;20045;-77
2023/12/20 05:42:21;;;;;;;;;;;5.20;99.90;;;;;;5063512;28;19932;-76
2023/12/20 05:44:48;;;;;;;;;;;5.20;99.90;;;;;;5062053;28;19936;-77
2023/12/20 05:47:16;;;;;;;;;;;5.20;99.90;;;;;;5062557;28;19936;-77
2023/12/20 05:49:44;;;;;;;;;;;5.20;99.90;;;;;;5064486;28;20057;-77
2023/12/20 05:52:10;;;;;;;;;;;5.20;99.90;;;;;;5060708;28;19925;-76
2023/12/20 05:54:37;;;;;;;;;;;5.20;99.90;;;;;;5065184;28;20011;-77
2023/12/20 05:57:04;;;;;;;;;;;5.20;99.90;;;;;;5063099;28;19936;-77
2023/12/20 05:59:30;;;;;;;;;;;5.20;99.90;;;;;;5062347;28;19985;-77
2023/12/20 06:01:57;;;;;;;;;;;5.20;99.90;;;;;;5061810;28;19936;-77
2023/12/20 06:04:25;;;;;;;;;;;5.20;99.90;;;;;;5063583;28;19989;-77
2023/12/20 06:06:51;;;;;;;;;;;5.20;99.90;;;;;;5063916;28;20400;-77
2023/12/20 06:09:18;;;;;;;;;;;5.20;99.90;;;;;;5064669;28;19930;-77
2023/12/20 06:11:44;;;;;;;;;;;5.20;99.90;;;;;;5062357;28;19932;-77
2023/12/20 06:14:11;;;;;;;;;;;5.20;99.90;;;;;;5061918;28;19928;-77
2023/12/20 06:16:37;;;;;;;;;;;5.20;99.90;;;;;;5060064;28;19928;-76
2023/12/20 06:19:04;;;;;;;;;;;5.20;99.90;;;;;;5062329;28;20042;-77
2023/12/20 06:21:32;;;;;;;;;;;5.20;99.90;;;;;;5061386;28;19940;-77
2023/12/20 06:23:59;;;;;;;;;;;5.20;99.90;;;;;;5064377;28;19929;-77
2023/12/20 06:26:26;;;;;;;;;;;5.20;99.90;;;;;;5062992;28;19932;-77
2023/12/20 06:28:52;;;;;;;;;;;5.30;99.90;;;;;;5061758;28;19962;-76
2023/12/20 06:31:19;;;;;;;;;;;5.20;99.90;;;;;;5060510;28;19936;-77
2023/12/20 06:33:46;;;;;;;;;;;5.20;99.90;;;;;;5060658;28;19935;-77
2023/12/20 06:36:13;;;;;;;;;;;5.20;99.90;;;;;;5061499;28;20417;-77
2023/12/20 06:38:42;;;;;;;;;;;5.20;99.90;;;;;;5063356;28;20019;-77
2023/12/20 06:41:08;;;;;;;;;;;5.20;99.90;;;;;;5061400;28;20398;-77
2023/12/20 06:43:35;;;;;;;;;;;5.20;99.90;;;;;;5062675;28;19959;-78
2023/12/20 06:46:01;;;;;;;;;;;5.20;99.90;;;;;;5061789;28;19929;-79
2023/12/20 06:48:28;;;;;;;;;;;5.20;99.90;;;;;;5060861;28;19943;-76
2023/12/20 06:50:54;;;;;;;;;;;5.30;99.90;;;;;;5063217;28;19963;-80
2023/12/20 06:53:21;;;;;;;;;;;5.30;99.90;;;;;;5069074;28;20305;-79
2023/12/20 06:55:49;;;;;;;;;;;5.30;99.90;;;;;;5067431;28;20298;-80
2023/12/20 06:58:16;;;;;;;;;;;5.30;99.90;;;;;;5070176;28;19933;-78
2023/12/20 07:00:43;;;;;;;;;;;5.30;99.90;;;;;;5067150;28;19939;-79
2023/12/20 07:03:10;;;;;;;;;;;5.30;99.90;;;;;;5067039;28;19936;-79
2023/12/20 07:05:36;;;;;;;;;;;5.30;99.90;;;;;;5069477;28;19977;-78
2023/12/20 07:08:03;;;;;;;;;;;5.30;99.90;;;;;;5069624;28;20630;-80
2023/12/20 07:10:31;;;;;;;;;;;5.30;99.90;;;;;;5067585;28;21293;-80
2023/12/20 07:12:59;;;;;;;;;;;5.30;99.90;;;;;;5069656;28;19936;-79
2023/12/20 07:15:26;;;;;;;;;;;5.30;99.90;;;;;;5067329;28;20309;-79
2023/12/20 07:17:53;;;;;;;;;;;5.30;99.90;;;;;;5067667;28;19932;-79
2023/12/20 07:20:19;;;;;;;;;;;5.30;99.90;;;;;;5068678;28;19932;-76
2023/12/20 07:22:46;;;;;;;;;;;5.30;99.90;;;;;;5068769;28;19929;-77
2023/12/20 07:25:13;;;;;;;;;;;5.30;99.90;;;;;;5065030;28;19943;-78
2023/12/20 07:27:39;;;;;;;;;;;5.30;99.90;;;;;;5066348;28;20394;-77
2023/12/20 07:30:08;;;;;;;;;;;5.40;99.90;;;;;;5066609;28;19932;-78
2023/12/20 07:32:34;;;;;;;;;;;5.50;99.90;;;;;;5063265;28;19928;-79
2023/12/20 07:35:01;;;;;;;;;;;5.50;99.90;;;;;;5067742;28;20676;-78
2023/12/20 07:37:27;;;;;;;;;;;5.60;99.90;;;;;;5067456;28;19928;-79
2023/12/20 07:39:54;;;;;;;;;;;5.60;99.90;;;;;;5065856;28;19940;-78
2023/12/20 07:42:21;;;;;;;;;;;5.60;99.90;;;;;;5067566;28;19928;-78
2023/12/20 07:44:47;;;;;;;;;;;5.70;99.90;;;;;;5066011;28;20476;-79
2023/12/20 07:47:19;;;;;;;;;;;5.70;99.90;;;;;;5066973;28;19924;-78
2023/12/20 07:49:45;;;;;;;;;;;5.70;99.90;;;;;;5065105;28;19928;-78
2023/12/20 07:52:12;;;;;;;;;;;5.70;99.90;;;;;;5067533;28;20483;-79
2023/12/20 07:54:39;;;;;;;;;;;5.70;99.90;;;;;;5064048;28;19928;-77
2023/12/20 07:57:05;;;;;;;;;;;5.80;99.90;;;;;;5067995;28;19928;-78
2023/12/20 07:59:32;;;;;;;;;;;5.80;99.90;;;;;;5064458;28;19929;-79
2023/12/20 08:01:58;;;;;;;;;;;5.80;99.90;;;;;;5065627;28;19951;-79
2023/12/20 08:04:27;;;;;;;;;;;5.80;99.90;;;;;;5063587;28;20413;-78
2023/12/20 08:06:53;;;;;;;;;;;5.80;99.90;;;;;;5065623;28;20381;-78
2023/12/20 08:09:20;;;;;;;;;;;5.80;99.90;;;;;;5067318;28;19930;-79
2023/12/20 08:11:46;;;;;;;;;;;5.80;99.90;;;;;;5065334;28;20025;-79
2023/12/20 08:14:13;;;;;;;;;;;5.80;99.90;;;;;;5067098;28;20371;-79
2023/12/20 08:16:39;;;;;;;;;;;5.80;99.90;;;;;;5063668;28;20410;-78
2023/12/20 08:19:06;;;;;;;;;;;5.80;99.90;;;;;;5067752;28;20563;-79
2023/12/20 08:21:34;;;;;;;;;;;5.90;99.90;;;;;;5063095;28;19936;-79
2023/12/20 08:24:01;;;;;;;;;;;5.80;99.90;;;;;;5065262;28;19940;-78
2023/12/20 08:26:27;;;;;;;;;;;5.80;99.90;;;;;;5064158;28;19955;-79
2023/12/20 08:28:54;;;;;;;;;;;5.80;99.90;;;;;;5062985;28;20755;-80
2023/12/20 08:31:21;;;;;;;;;;;5.80;99.90;;;;;;5066136;28;19932;-78
2023/12/20 08:33:48;;;;;;;;;;;5.80;99.90;;;;;;5066123;28;19928;-78
2023/12/20 08:36:14;;;;;;;;;;;5.80;99.90;;;;;;5066930;28;19932;-78
2023/12/20 08:38:42;;;;;;;;;;;5.80;99.90;;;;;;5061221;28;19929;-77
2023/12/20 08:41:09;;;;;;;;;;;5.80;99.90;;;;;;5064351;28;19928;-78
2023/12/20 08:43:35;;;;;;;;;;;5.80;99.90;;;;;;5065497;28;19928;-78
2023/12/20 08:46:02;;;;;;;;;;;5.80;99.90;;;;;;5063937;28;20435;-79
2023/12/20 08:48:29;;;;;;;;;;;5.80;99.90;;;;;;5065830;28;19959;-79
2023/12/20 08:50:55;;;;;;;;;;;5.80;99.90;;;;;;5065436;28;19928;-77
2023/12/20 08:53:22;;;;;;;;;;;5.80;99.90;;;;;;5062030;28;19940;-80
2023/12/20 08:55:50;;;;;;;;;;;5.70;99.90;;;;;;5062029;28;20330;-78
2023/12/20 08:58:16;;;;;;;;;;;5.80;99.90;;;;;;5064623;28;19928;-79
2023/12/20 09:00:43;;;;;;;;;;;5.70;99.90;;;;;;5058800;28;19933;-79
2023/12/20 09:03:10;;;;;;;;;;;5.70;99.90;;;;;;5061594;28;19951;-78
2023/12/20 09:05:36;;;;;;;;;;;5.70;99.90;;;;;;5057882;28;19928;-79
2023/12/20 09:08:03;;;;;;;;;;;5.70;99.90;;;;;;5059772;28;19936;-79
2023/12/20 09:10:30;;;;;;;;;;;5.70;99.90;;;;;;5059916;28;19928;-79
2023/12/20 09:12:58;;;;;;;;;;;5.70;99.90;;;;;;5061477;28;19928;-78
2023/12/20 09:15:25;;;;;;;;;;;5.70;99.90;;;;;;5058395;28;19936;-79
2023/12/20 09:17:51;;;;;;;;;;;5.70;99.90;;;;;;5059999;28;19974;-79
2023/12/20 09:20:18;;;;;;;;;;;5.70;99.90;;;;;;5058976;28;20265;-80
2023/12/20 09:22:45;;;;;;;;;;;5.70;99.90;;;;;;5059820;28;19936;-78
2023/12/20 09:25:13;;;;;;;;;;;5.70;99.90;;;;;;5062375;28;19935;-79
2023/12/20 09:27:40;;;;;;;;;;;5.70;99.90;;;;;;5065360;28;19932;-78
2023/12/20 09:30:08;;;;;;;;;;;5.70;99.90;;;;;;5061654;28;19924;-79
2023/12/20 09:32:35;;;;;;;;;;;5.60;99.90;;;;;;5059027;28;20039;-79
2023/12/20 09:35:02;;;;;;;;;;;5.60;99.90;;;;;;5059413;28;20023;-79
2023/12/20 09:37:28;;;;;;;;;;;5.60;99.90;;;;;;5056260;28;19932;-79
2023/12/20 09:39:55;;;;;;;;;;;5.60;99.90;;;;;;5063138;28;20441;-79
2023/12/20 09:42:25;;;;;;;;;;;5.60;99.90;;;;;;5062961;28;19939;-77
2023/12/20 09:44:52;;;;;;;;;;;5.60;99.90;;;;;;5063341;28;19932;-79
2023/12/20 09:47:20;;;;;;;;;;;5.60;99.90;;;;;;5058133;28;19928;-77
2023/12/20 09:49:47;;;;;;;;;;;5.60;99.90;;;;;;5062727;28;19932;-79
2023/12/20 09:52:14;;;;;;;;;;;5.60;99.90;;;;;;5061200;28;19936;-79
2023/12/20 09:54:41;;;;;;;;;;;5.60;99.90;;;;;;5056156;28;19928;-78
2023/12/20 09:57:07;;;;;;;;;;;5.60;99.90;;;;;;5062079;28;19928;-79
2023/12/20 09:59:34;;;;;;;;;;;5.60;99.90;;;;;;5060098;28;20587;-79
2023/12/20 10:02:03;;;;;;;;;;;5.60;99.90;;;;;;5061293;28;20399;-77
2023/12/20 10:04:32;;;;;;;;;;;5.60;99.90;;;;;;5060254;28;19929;-78
2023/12/20 10:07:03;;;;;;;;;;;5.60;99.90;;;;;;5059803;28;20549;-78
2023/12/20 10:09:31;;;;;;;;;;;5.60;99.90;;;;;;5063580;28;20394;-78
2023/12/20 10:11:58;;;;;;;;;;;5.60;99.90;;;;;;5062006;28;19924;-80
2023/12/20 10:14:25;;;;;;;;;;;5.60;99.90;;;;;;5063945;28;19997;-78
2023/12/20 10:16:51;;;;;;;;;;;5.60;99.90;;;;;;5063697;28;19935;-79
2023/12/20 10:19:18;;;;;;;;;;;5.60;99.90;;;;;;5060992;28;19928;-79
2023/12/20 10:21:46;;;;;;;;;;;5.60;99.90;;;;;;5061558;28;20045;-77
2023/12/20 10:24:17;;;;;;;;;;;5.60;99.90;;;;;;5064344;28;20032;-78
2023/12/20 10:26:44;;;;;;;;;;;5.60;99.90;;;;;;5067370;28;20389;-80
2023/12/20 10:29:10;;;;;;;;;;;5.60;99.90;;;;;;5072024;28;20417;-79
2023/12/20 10:31:38;;;;;;;;;;;5.60;99.90;;;;;;5073883;28;19935;-79
2023/12/20 10:34:05;;;;;;;;;;;5.60;99.90;;;;;;5078902;28;19991;-79
2023/12/20 10:36:32;;;;;;;;;;;5.60;99.90;;;;;;5072591;28;19932;-80
2023/12/20 10:39:01;;;;;;;;;;;5.60;99.90;;;;;;5064693;28;19935;-79
2023/12/20 10:41:28;;;;;;;;;;;5.60;99.90;;;;;;5071045;28;20066;-79
2023/12/20 10:44:00;;;;;;;;;;;5.60;99.90;;;;;;5065655;28;19928;-80
2023/12/20 10:46:28;;;;;;;;;;;5.70;99.90;;;;;;5070255;28;19933;-81
2023/12/20 10:48:55;;;;;;;;;;;5.60;99.90;;;;;;5069030;28;19999;-79
2023/12/20 10:51:22;;;;;;;;;;;5.60;99.90;;;;;;5069639;28;19929;-79
2023/12/20 10:53:51;;;;;;;;;;;5.60;99.90;;;;;;5070177;28;19933;-79
2023/12/20 10:56:20;;;;;;;;;;;5.70;99.90;;;;;;5067007;28;19932;-80
2023/12/20 10:58:47;;;;;;;;;;;5.70;99.90;;;;;;5067970;28;19929;-81
2023/12/20 11:01:14;;;;;;;;;;;5.60;99.90;;;;;;5071675;28;19936;-80
2023/12/20 11:03:44;;;;;;;;;;;5.70;99.90;;;;;;5069467;28;19985;-80
2023/12/20 11:06:13;;;;;;;;;;;5.60;99.90;;;;;;5069205;28;20612;-81
2023/12/20 11:08:43;;;;;;;;;;;7.00;99.90;;;;;;5067173;28;19932;-79
2023/12/20 11:11:14;;;;;;;;;;;5.70;99.90;;;;;;5068086;28;19935;-80
2023/12/20 11:13:45;;;;;;;;;;;5.70;99.90;;;;;;5066591;28;19928;-79
2023/12/20 11:16:12;;;;;;;;;;;5.70;99.90;;;;;;5070053;28;19932;-80
2023/12/20 11:18:41;;;;;;;;;;;5.70;99.90;;;;;;5067664;28;19928;-79
2023/12/20 11:21:07;;;;;;;;;;;5.70;99.90;;;;;;5070452;28;19928;-79
2023/12/20 11:23:34;;;;;;;;;;;5.70;99.90;;;;;;5065314;28;19940;-80
2023/12/20 11:26:02;;;;;;;;;;;5.70;99.90;;;;;;5062867;28;20805;-79
2023/12/20 11:28:29;;;;;;;;;;;5.70;99.90;;;;;;5066025;28;19933;-80
2023/12/20 11:30:59;;;;;;;;;;;5.70;99.90;;;;;;5064950;28;19929;-80
2023/12/20 11:33:26;;;;;;;;;;;5.80;99.90;;;;;;5069053;28;19928;-79
2023/12/20 11:35:56;;;;;;;;;;;5.80;99.90;;;;;;5066761;28;19928;-80
2023/12/20 11:38:22;;;;;;;;;;;5.70;99.90;;;;;;5067036;28;19932;-81
2023/12/20 11:40:50;;;;;;;;;;;5.80;99.90;;;;;;5066039;28;19936;-79
2023/12/20 11:43:30;;;;;;;;;;;5.80;99.90;;;;;;5067258;28;20015;-80
2023/12/20 11:46:03;;;;;;;;;;;5.80;99.90;;;;;;5066892;28;19929;-80
2023/12/20 11:48:31;;;;;;;;;;;5.80;99.90;;;;;;5068142;28;19936;-80
2023/12/20 11:50:57;;;;;;;;;;;5.80;99.90;;;;;;5066439;28;20364;-79
2023/12/20 11:53:24;;;;;;;;;;;5.80;99.90;;;;;;5062988;28;20338;-77
2023/12/20 11:55:50;;;;;;;;;;;5.80;99.90;;;;;;5065828;28;19935;-79
2023/12/20 11:58:17;;;;;;;;;;;5.80;99.90;;;;;;5066135;28;19936;-80
2023/12/20 12:00:44;;;;;;;;;;;5.80;99.90;;;;;;5065695;28;19933;-78
2023/12/20 12:03:15;;;;;;;;;;;5.80;99.90;;;;;;5065835;28;20015;-77
2023/12/20 12:05:42;;;;;;;;;;;5.80;99.90;;;;;;5066887;28;19982;-78
2023/12/20 12:08:08;;;;;;;;;;;5.80;99.90;;;;;;5062466;28;19932;-79
2023/12/20 12:10:35;;;;;;;;;;;5.80;99.90;;;;;;5063042;28;19932;-77
2023/12/20 12:13:01;;;;;;;;;;;5.80;99.90;;;;;;5064713;28;20583;-77
2023/12/20 12:15:28;;;;;;;;;;;5.80;99.90;;;;;;5062969;28;19943;-77
2023/12/20 12:17:55;;;;;;;;;;;5.80;99.90;;;;;;5062878;28;19932;-78
2023/12/20 12:20:24;;;;;;;;;;;5.80;99.90;;;;;;5064660;28;19928;-78
2023/12/20 12:22:58;;;;;;;;;;;5.80;99.90;;;;;;5062817;28;19932;-77
2023/12/20 12:25:24;;;;;;;;;;;5.80;99.90;;;;;;5064084;28;19939;-76
2023/12/20 12:27:51;;;;;;;;;;;5.80;99.90;;;;;;5065204;28;19933;-76
2023/12/20 12:30:18;;;;;;;;;;;5.80;99.90;;;;;;5062512;28;20378;-77
2023/12/20 12:32:45;;;;;;;;;;;5.90;99.90;;;;;;5063374;28;20460;-76
2023/12/20 12:35:11;;;;;;;;;;;5.90;99.90;;;;;;5065115;28;19933;-76
2023/12/20 12:37:40;;;;;;;;;;;5.90;99.90;;;;;;5064777;28;19929;-78
2023/12/20 12:40:07;;;;;;;;;;;5.90;99.90;;;;;;5061735;28;19932;-78
2023/12/20 12:42:34;;;;;;;;;;;5.90;99.90;;;;;;5064602;28;19932;-78
2023/12/20 12:45:00;;;;;;;;;;;5.90;99.90;;;;;;5062440;28;19967;-77
2023/12/20 12:47:27;;;;;;;;;;;5.90;99.90;;;;;;5062919;28;20348;-78
2023/12/20 12:49:53;;;;;;;;;;;5.90;99.90;;;;;;5063608;28;19928;-78
2023/12/20 12:52:20;;;;;;;;;;;5.90;99.90;;;;;;5067493;28;19971;-79
2023/12/20 12:54:48;;;;;;;;;;;5.90;99.90;;;;;;5064374;28;19929;-79
2023/12/20 12:57:15;;;;;;;;;;;5.90;99.90;;;;;;5065440;28;20797;-79
2023/12/20 12:59:42;;;;;;;;;;;5.90;99.90;;;;;;5063878;28;20362;-79
2023/12/20 13:02:09;;;;;;;;;;;5.90;99.90;;;;;;5064404;28;19954;-81
2023/12/20 13:04:35;;;;;;;;;;;5.90;99.90;;;;;;5063354;28;19968;-78
2023/12/20 13:07:02;;;;;;;;;;;5.90;99.90;;;;;;5065385;28;20003;-80
2023/12/20 13:09:28;;;;;;;;;;;5.90;99.90;;;;;;5065489;28;19928;-79
2023/12/20 13:11:56;;;;;;;;;;;5.90;99.90;;;;;;5064609;28;20052;-79
2023/12/20 13:14:23;;;;;;;;;;;5.90;99.90;;;;;;5065422;28;19928;-79
2023/12/20 13:16:49;;;;;;;;;;;5.90;99.90;;;;;;5066196;28;19929;-78
2023/12/20 13:19:16;;;;;;;;;;;5.90;99.90;;;;;;5066795;28;19932;-78
2023/12/20 13:21:42;;;;;;;;;;;5.90;99.90;;;;;;5063448;28;20014;-78
2023/12/20 13:24:09;;;;;;;;;;;5.90;99.90;;;;;;5063412;28;19938;-78
2023/12/20 13:26:36;;;;;;;;;;;5.90;99.90;;;;;;5057519;28;19939;-77
2023/12/20 13:29:04;;;;;;;;;;;5.90;99.90;;;;;;5070620;28;19932;-82
2023/12/20 13:31:31;;;;;;;;;;;5.90;99.90;;;;;;5067590;28;19936;-78
2023/12/20 13:33:57;;;;;;;;;;;5.90;99.90;;;;;;5064010;28;19935;-78
2023/12/20 13:36:24;;;;;;;;;;;5.90;99.90;;;;;;5061259;28;19928;-77
2023/12/20 13:38:50;;;;;;;;;;;5.90;99.90;;;;;;5064506;28;19928;-77
2023/12/20 13:41:17;;;;;;;;;;;5.90;99.90;;;;;;5060764;28;19982;-67
2023/12/20 13:43:43;;;;;;;;;;;5.90;99.90;;;;;;5061719;28;19989;-67
2023/12/20 13:46:11;;;;;;;;;;;5.90;99.90;;;;;;5062009;28;19935;-66
2023/12/20 13:48:38;;;;;;;;;;;5.90;99.90;;;;;;5062258;28;19955;-67
2023/12/20 13:51:05;;;;;;;;;;;5.90;99.90;;;;;;5060462;28;19933;-67
2023/12/20 13:53:32;;;;;;;;;;;5.90;99.90;;;;;;5062229;28;19974;-66
2023/12/20 13:55:59;;;;;;;;;;;5.90;99.90;;;;;;5063410;28;19978;-67
2023/12/20 13:58:26;;;;;;;;;;;5.90;99.90;;;;;;5061482;28;19928;-68
2023/12/20 14:00:52;;;;;;;;;;;5.90;99.90;;;;;;5064838;28;19935;-67
2023/12/20 14:03:20;;;;;;;;;;;5.90;99.90;;;;;;5068150;28;20571;-67
2023/12/20 14:05:47;;;;;;;;;;;5.90;99.90;;;;;;5065727;28;19928;-67
2023/12/20 14:08:13;;;;;;;;;;;5.90;99.90;;;;;;5063800;28;20390;-68
2023/12/20 14:10:40;;;;;;;;;;;5.90;99.90;;;;;;5064670;28;19929;-66
2023/12/20 14:13:06;;;;;;;;;;;5.80;99.90;;;;;;5070188;28;19935;-67
2023/12/20 14:15:36;;;;;;;;;;;5.90;99.90;;;;;;5066644;28;19978;-66
2023/12/20 14:18:04;;;;;;;;;;;5.90;99.90;;;;;;5066442;28;19935;-67
2023/12/20 14:20:34;;;;;;;;;;;5.90;99.90;;;;;;5068114;28;20310;-67
2023/12/20 14:23:00;;;;;;;;;;;5.90;99.90;;;;;;5062819;28;19971;-66
2023/12/20 14:25:27;;;;;;;;;;;5.90;99.90;;;;;;5069300;28;19932;-68
2023/12/20 14:27:53;;;;;;;;;;;5.90;99.90;;;;;;5066012;28;20386;-67
2023/12/20 14:30:20;;;;;;;;;;;5.90;99.90;;;;;;5067396;28;19932;-66